createdAt,value
2018-10-01T00:01:01.016Z,4.85
2018-10-01T00:06:04.326Z,3.50
2018-10-01T00:11:07.653Z,8.00
2018-10-01T00:16:11.320Z,6.93
2018-10-01T00:21:20.515Z,8.45
2018-10-01T00:26:24.020Z,5.60
2018-10-01T00:31:27.327Z,4.33
2018-10-01T00:36:31.593Z,3.97
2018-10-01T00:41:34.928Z,4.70
2018-10-01T00:46:38.217Z,3.80
2018-10-01T00:51:41.587Z,5.62
2018-10-01T00:56:44.841Z,3.62
2018-10-01T01:01:48.306Z,4.17
2018-10-01T01:06:51.666Z,4.17
2018-10-01T01:11:55.595Z,3.15
2018-10-01T01:16:58.863Z,4.70
2018-10-01T01:22:02.316Z,5.75
2018-10-01T01:27:05.652Z,5.10
2018-10-01T01:32:09.016Z,5.70
2018-10-01T01:37:12.331Z,5.20
2018-10-01T01:42:15.675Z,6.08
2018-10-01T01:47:18.951Z,3.70
2018-10-01T01:52:22.298Z,4.15
2018-10-01T01:57:25.820Z,4.10
2018-10-01T02:02:29.143Z,3.22
2018-10-01T02:07:32.471Z,4.20
2018-10-01T02:12:35.755Z,7.20
2018-10-01T02:17:39.153Z,4.67
2018-10-01T02:22:42.855Z,4.55
2018-10-01T02:27:46.996Z,5.15
2018-10-01T02:32:50.258Z,3.40
2018-10-01T02:37:53.606Z,4.23
2018-10-01T02:42:56.976Z,4.20
2018-10-01T02:48:01.558Z,4.17
2018-10-01T02:53:10.292Z,4.37
2018-10-01T02:58:13.565Z,7.28
2018-10-01T03:03:16.869Z,6.50
2018-10-01T03:08:20.207Z,4.75
2018-10-01T03:13:24.153Z,5.62
2018-10-01T03:18:27.494Z,4.03
2018-10-01T03:23:30.780Z,4.10
2018-10-01T03:28:34.079Z,6.33
2018-10-01T03:33:37.391Z,5.90
2018-10-01T03:38:40.705Z,5.90
2018-10-01T03:43:44.059Z,4.83
2018-10-01T03:48:47.695Z,3.72
2018-10-01T03:53:50.980Z,3.80
2018-10-01T03:58:54.283Z,4.93
2018-10-01T04:03:57.692Z,4.53
2018-10-01T04:09:01.087Z,5.70
2018-10-01T04:14:04.249Z,8.53
2018-10-01T04:19:07.633Z,3.85
2018-10-01T04:24:10.973Z,5.62
2018-10-01T04:29:14.976Z,5.00
2018-10-01T04:34:19.167Z,6.50
2018-10-01T04:39:22.660Z,4.60
2018-10-01T04:44:25.890Z,5.40
2018-10-01T04:49:29.154Z,4.90
2018-10-01T04:54:32.565Z,5.60
2018-10-01T04:59:36.520Z,7.50
2018-10-01T05:04:46.444Z,6.30
2018-10-01T05:09:49.734Z,5.87
2018-10-01T05:14:53.167Z,6.53
2018-10-01T05:19:56.400Z,8.50
2018-10-01T05:24:59.649Z,8.80
2018-10-01T05:30:02.906Z,6.85
2018-10-01T05:35:06.301Z,5.60
2018-10-01T05:40:09.752Z,8.70
2018-10-01T05:45:13.057Z,9.78
2018-10-01T05:50:16.964Z,9.38
2018-10-01T05:55:20.283Z,7.00
2018-10-01T06:00:23.512Z,8.13
2018-10-01T06:05:26.839Z,8.58
2018-10-01T06:10:30.147Z,8.73
2018-10-01T06:15:33.528Z,8.05
2018-10-01T06:20:36.842Z,8.48
2018-10-01T06:25:40.179Z,9.07
2018-10-01T06:30:43.595Z,7.90
2018-10-01T06:35:46.908Z,11.53
2018-10-01T06:40:50.177Z,8.40
2018-10-01T06:45:53.477Z,7.00
2018-10-01T06:50:56.771Z,6.37
2018-10-01T06:56:00.059Z,4.70
2018-10-01T07:01:03.463Z,5.78
2018-10-01T07:06:06.768Z,6.20
2018-10-01T07:11:10.119Z,6.72
2018-10-01T07:16:14.522Z,8.30
2018-10-01T07:21:19.376Z,9.60
2018-10-01T07:26:23.440Z,12.47
2018-10-01T07:31:26.763Z,12.73
2018-10-01T07:36:30.045Z,14.43
2018-10-01T07:41:33.403Z,12.80
2018-10-01T07:46:37.452Z,8.60
2018-10-01T07:51:42.954Z,11.20
2018-10-01T07:56:46.221Z,10.03
2018-10-01T08:01:49.533Z,9.73
2018-10-01T08:06:52.872Z,12.18
2018-10-01T08:11:56.209Z,11.53
2018-10-01T08:16:59.524Z,12.57
2018-10-01T08:22:02.848Z,10.00
2018-10-01T08:27:06.355Z,10.88
2018-10-01T08:32:09.742Z,18.02
2018-10-01T08:37:13.016Z,13.48
2018-10-01T08:42:16.362Z,12.23
2018-10-01T08:47:19.773Z,11.20
2018-10-01T08:52:29.235Z,16.67
2018-10-01T08:57:32.527Z,18.95
2018-10-01T09:02:35.905Z,16.87
2018-10-01T09:07:39.156Z,18.20
2018-10-01T09:12:42.426Z,14.33
2018-10-01T09:17:46.523Z,12.37
2018-10-01T09:22:49.984Z,14.23
2018-10-01T09:27:53.295Z,12.70
2018-10-01T09:32:56.645Z,10.43
2018-10-01T09:38:00.219Z,12.63
2018-10-01T09:43:03.564Z,13.30
2018-10-01T09:48:07.066Z,9.90
2018-10-01T09:53:10.262Z,12.00
2018-10-01T09:58:13.623Z,10.48
2018-10-01T10:03:16.981Z,10.50
2018-10-01T10:08:20.273Z,10.20
2018-10-01T10:13:23.525Z,9.50
2018-10-01T10:18:26.811Z,8.53
2018-10-01T10:23:30.164Z,7.13
2018-10-01T10:28:33.489Z,7.87
2018-10-01T10:33:42.592Z,9.40
2018-10-01T10:38:45.940Z,6.55
2018-10-01T10:43:49.331Z,7.40
2018-10-01T10:48:52.639Z,9.40
2018-10-01T10:53:55.937Z,7.47
2018-10-01T10:59:00.030Z,10.58
2018-10-01T11:04:03.314Z,9.27
2018-10-01T11:09:09.105Z,7.92
2018-10-01T11:14:13.049Z,5.80
2018-10-01T11:19:17.296Z,7.70
2018-10-01T11:24:20.456Z,5.87
2018-10-01T11:29:23.907Z,6.55
2018-10-01T11:34:27.449Z,5.30
2018-10-01T11:39:31.954Z,5.37
2018-10-01T11:44:35.620Z,6.97
2018-10-01T11:49:38.997Z,5.10
2018-10-01T11:54:42.265Z,5.67
2018-10-01T11:59:45.524Z,6.60
2018-10-01T12:04:48.751Z,9.65
2018-10-01T12:09:52.210Z,6.47
2018-10-01T12:14:58.439Z,6.17
2018-10-01T12:20:02.234Z,7.07
2018-10-01T12:25:08.476Z,5.67
2018-10-01T12:30:12.407Z,4.85
2018-10-01T12:35:15.652Z,5.55
2018-10-01T12:40:19.005Z,4.17
2018-10-01T12:45:22.420Z,3.93
2018-10-01T12:50:25.696Z,3.25
2018-10-01T12:55:28.967Z,5.53
2018-10-01T13:00:32.248Z,5.17
2018-10-01T13:05:35.557Z,5.10
2018-10-01T13:10:38.813Z,4.80
2018-10-01T13:15:42.109Z,2.58
2018-10-01T13:20:45.414Z,3.30
2018-10-01T13:25:48.796Z,5.03
2018-10-01T13:30:52.041Z,3.33
2018-10-01T13:35:55.354Z,3.90
2018-10-01T13:40:58.675Z,2.58
2018-10-01T13:46:01.928Z,7.67
2018-10-01T13:51:05.244Z,3.40
2018-10-01T13:56:08.559Z,2.40
2018-10-01T14:01:11.823Z,4.20
2018-10-01T14:06:15.205Z,2.87
2018-10-01T14:11:18.430Z,3.25
2018-10-01T14:16:21.742Z,2.80
2018-10-01T14:21:24.964Z,1.98
2018-10-01T14:26:28.208Z,1.87
2018-10-01T14:31:31.515Z,3.60
2018-10-01T14:36:34.813Z,2.00
2018-10-01T14:41:38.106Z,5.40
2018-10-01T14:46:41.439Z,1.30
2018-10-01T14:51:44.717Z,4.10
2018-10-01T14:56:47.986Z,2.00
2018-10-01T15:01:51.240Z,2.83
2018-10-01T15:06:54.581Z,2.75
2018-10-01T15:11:57.888Z,2.30
2018-10-01T15:17:01.973Z,2.95
2018-10-01T15:22:05.223Z,2.20
2018-10-01T15:27:08.533Z,2.45
2018-10-01T15:32:11.813Z,2.90
2018-10-01T15:37:16.041Z,3.30
2018-10-01T15:42:19.324Z,1.90
2018-10-01T15:47:22.571Z,2.20
2018-10-01T15:52:26.660Z,2.00
2018-10-01T15:57:29.901Z,2.55
2018-10-01T16:02:33.713Z,1.85
2018-10-01T16:07:37.055Z,2.22
2018-10-01T16:12:40.354Z,3.20
2018-10-01T16:17:43.631Z,2.90
2018-10-01T16:22:46.976Z,3.00
2018-10-01T16:27:50.308Z,2.62
2018-10-01T16:32:53.564Z,1.75
2018-10-01T16:37:56.825Z,3.20
2018-10-01T16:43:00.542Z,2.10
2018-10-01T16:48:03.916Z,2.40
2018-10-01T16:53:07.364Z,3.37
2018-10-01T16:58:13.226Z,1.40
2018-10-01T17:03:16.598Z,2.30
2018-10-01T17:08:19.841Z,2.90
2018-10-01T17:13:23.860Z,4.53
2018-10-01T17:18:27.219Z,2.10
2018-10-01T17:23:30.713Z,2.70
2018-10-01T17:28:37.079Z,2.30
2018-10-01T17:33:40.392Z,3.23
2018-10-01T17:38:44.041Z,3.47
2018-10-01T17:43:47.331Z,2.37
2018-10-01T17:49:37.415Z,5.05
2018-10-01T17:54:41.787Z,3.22
2018-10-01T17:59:45.927Z,3.00
2018-10-01T18:04:59.933Z,5.47
2018-10-01T18:10:08.085Z,3.40
2018-10-01T18:16:21.743Z,6.12
2018-10-01T18:21:29.913Z,5.35
2018-10-01T18:26:33.367Z,6.60
2018-10-01T18:31:36.680Z,4.13
2018-10-01T18:37:06.330Z,4.17
2018-10-01T18:42:18.957Z,5.70
2018-10-01T18:47:29.082Z,3.35
2018-10-01T18:52:35.585Z,4.03
2018-10-01T19:03:12.296Z,5.70
2018-10-01T19:08:17.610Z,4.13
2018-10-01T19:13:24.202Z,4.00
2018-10-01T19:18:27.600Z,5.03
2018-10-01T19:23:35.001Z,5.33
2018-10-01T19:28:38.624Z,4.30
2018-10-01T19:33:41.971Z,5.65
2018-10-01T19:38:45.278Z,5.05
2018-10-01T19:43:57.368Z,5.70
2018-10-01T19:49:13.487Z,7.17
2018-10-01T19:54:18.326Z,5.37
2018-10-01T19:59:26.541Z,3.93
2018-10-01T20:04:36.846Z,4.55
2018-10-01T20:09:43.104Z,5.20
2018-10-01T20:14:46.422Z,2.52
2018-10-01T20:19:50.900Z,3.17
2018-10-01T20:24:55.209Z,4.35
2018-10-01T20:30:00.560Z,3.50
2018-10-01T20:35:04.048Z,4.33
2018-10-01T20:40:07.885Z,4.85
2018-10-01T20:45:11.256Z,3.20
2018-10-01T20:50:15.187Z,3.63
2018-10-01T20:55:18.560Z,3.90
2018-10-01T21:00:21.855Z,4.80
2018-10-01T21:05:25.217Z,3.40
2018-10-01T21:10:28.606Z,5.58
2018-10-01T21:15:32.179Z,4.87
2018-10-01T21:20:35.501Z,3.12
2018-10-01T21:25:40.664Z,5.10
2018-10-01T21:30:44.827Z,4.55
2018-10-01T21:35:48.098Z,3.90
2018-10-01T21:40:51.378Z,5.20
2018-10-01T21:45:54.773Z,5.80
2018-10-01T21:50:58.052Z,5.20
2018-10-01T21:56:02.050Z,6.00
2018-10-01T22:01:10.749Z,4.95
2018-10-01T22:06:16.210Z,4.45
2018-10-01T22:11:19.584Z,5.27
2018-10-01T22:16:26.724Z,5.80
2018-10-01T22:21:30.105Z,6.10
2018-10-01T22:26:33.774Z,4.72
2018-10-01T22:31:37.118Z,5.05
2018-10-01T22:36:40.649Z,4.72
2018-10-01T22:41:43.979Z,5.92
2018-10-01T22:46:47.419Z,4.17
2018-10-01T22:51:50.745Z,5.40
2018-10-01T22:56:54.099Z,6.78
2018-10-01T23:01:58.134Z,5.50
2018-10-01T23:07:01.454Z,6.05
2018-10-01T23:12:04.738Z,5.87
2018-10-01T23:17:08.064Z,4.47
2018-10-01T23:22:11.330Z,3.65
2018-10-01T23:27:14.746Z,6.10
2018-10-01T23:32:18.115Z,5.97
2018-10-01T23:37:21.343Z,6.75
2018-10-01T23:42:24.664Z,5.22
2018-10-01T23:47:28.071Z,2.40
2018-10-01T23:52:31.444Z,5.12
2018-10-01T23:57:34.798Z,6.25
